History Data

Date (GMT-7:00) CPM ACPM uSv/h Latitude Longitude Altitude CO CO2 TVOC HCHO Air Pressure Temperature Humidity Type
2025-10-21 14:09:49 21 19.00 0.105000 41.649648 41.62752893 0 0 0 0 0 0 0 0 STD5.60
2025-10-21 14:04:47 19 19.10 0.095000 41.649648 41.62752893 0 0 0 0 0 0 0 0 STD5.60
2025-10-21 13:59:45 21 16.60 0.105000 41.649648 41.62752893 0 0 0 0 0 0 0 0 STD5.60
2025-10-21 13:54:43 20 15.20 0.100000 41.649648 41.62752893 0 0 0 0 0 0 0 0 STD5.60
2025-10-21 13:49:41 15 17.10 0.075000 41.649648 41.62752893 0 0 0 0 0 0 0 0 STD5.60
2025-10-21 13:44:39 22 18.10 0.110000 41.649648 41.62752893 0 0 0 0 0 0 0 0 STD5.60
2025-10-21 13:39:35 27 17.00 0.135000 41.649648 41.62752893 0 0 0 0 0 0 0 0 STD5.60
2025-10-21 13:34:33 11 17.30 0.055000 41.649648 41.62752893 0 0 0 0 0 0 0 0 STD5.60
2025-10-21 13:29:31 20 17.30 0.100000 41.649648 41.62752893 0 0 0 0 0 0 0 0 STD5.60
2025-10-21 13:24:29 19 18.40 0.095000 41.649648 41.62752893 0 0 0 0 0 0 0 0 STD5.60
2025-10-21 13:19:27 18 20.60 0.090000 41.649648 41.62752893 0 0 0 0 0 0 0 0 STD5.60
2025-10-21 13:14:25 15 17.60 0.075000 41.649648 41.62752893 0 0 0 0 0 0 0 0 STD5.60
2025-10-21 13:09:22 9 16.40 0.045000 41.649648 41.62752893 0 0 0 0 0 0 0 0 STD5.60
2025-10-21 13:04:20 19 17.40 0.095000 41.649648 41.62752893 0 0 0 0 0 0 0 0 STD5.60
2025-10-21 12:59:18 19 17.00 0.095000 41.649648 41.62752893 0 0 0 0 0 0 0 0 STD5.60
2025-10-21 12:54:16 19 17.80 0.095000 41.649648 41.62752893 0 0 0 0 0 0 0 0 STD5.60
2025-10-21 12:49:15 21 17.30 0.105000 41.649648 41.62752893 0 0 0 0 0 0 0 0 STD5.60
2025-10-21 12:44:12 12 17.70 0.060000 41.649648 41.62752893 0 0 0 0 0 0 0 0 STD5.60
2025-10-21 12:39:10 23 19.50 0.115000 41.649648 41.62752893 0 0 0 0 0 0 0 0 STD5.60
2025-10-21 12:34:07 15 16.60 0.075000 41.649648 41.62752893 0 0 0 0 0 0 0 0 STD5.60
2025-10-21 12:29:04 12 15.90 0.060000 41.649648 41.62752893 0 0 0 0 0 0 0 0 STD5.60
2025-10-21 12:24:02 19 18.00 0.095000 41.649648 41.62752893 0 0 0 0 0 0 0 0 STD5.60
2025-10-21 12:19:00 15 18.20 0.075000 41.649648 41.62752893 0 0 0 0 0 0 0 0 STD5.60
2025-10-21 12:13:59 11 17.40 0.055000 41.649648 41.62752893 0 0 0 0 0 0 0 0 STD5.60
2025-10-21 12:08:57 20 16.10 0.100000 41.649648 41.62752893 0 0 0 0 0 0 0 0 STD5.60
2025-10-21 12:03:55 15 18.00 0.075000 41.649648 41.62752893 0 0 0 0 0 0 0 0 STD5.60
2025-10-21 11:58:53 21 18.90 0.105000 41.649648 41.62752893 0 0 0 0 0 0 0 0 STD5.60
2025-10-21 11:53:51 22 17.40 0.110000 41.649648 41.62752893 0 0 0 0 0 0 0 0 STD5.60
2025-10-21 11:48:49 16 16.40 0.080000 41.649648 41.62752893 0 0 0 0 0 0 0 0 STD5.60
2025-10-21 11:43:47 9 17.60 0.045000 41.649648 41.62752893 0 0 0 0 0 0 0 0 STD5.60
2025-10-21 11:38:43 20 17.60 0.100000 41.649648 41.62752893 0 0 0 0 0 0 0 0 STD5.60
2025-10-21 11:33:40 15 17.10 0.075000 41.649648 41.62752893 0 0 0 0 0 0 0 0 STD5.60
2025-10-21 11:28:38 18 18.20 0.090000 41.649648 41.62752893 0 0 0 0 0 0 0 0 STD5.60
2025-10-21 11:23:36 16 16.70 0.080000 41.649648 41.62752893 0 0 0 0 0 0 0 0 STD5.60
2025-10-21 11:18:34 15 16.80 0.075000 41.649648 41.62752893 0 0 0 0 0 0 0 0 STD5.60
2025-10-21 11:13:33 17 18.00 0.085000 41.649648 41.62752893 0 0 0 0 0 0 0 0 STD5.60
2025-10-21 11:08:30 14 16.80 0.070000 41.649648 41.62752893 0 0 0 0 0 0 0 0 STD5.60
2025-10-21 11:03:28 15 17.10 0.075000 41.649648 41.62752893 0 0 0 0 0 0 0 0 STD5.60
2025-10-21 10:58:26 25 17.80 0.125000 41.649648 41.62752893 0 0 0 0 0 0 0 0 STD5.60
2025-10-21 10:53:25 18 19.10 0.090000 41.649648 41.62752893 0 0 0 0 0 0 0 0 STD5.60
2025-10-21 10:48:22 22 16.70 0.110000 41.649648 41.62752893 0 0 0 0 0 0 0 0 STD5.60
2025-10-21 10:43:20 16 6.00 0.080000 41.649648 41.62752893 0 0 0 0 0 0 0 0 STD5.60
2025-10-21 10:38:04 20 16.10 0.100000 41.649648 41.62752893 0 0 0 0 0 0 0 0 STD5.60
2025-10-21 10:33:03 20 15.60 0.100000 41.649648 41.62752893 0 0 0 0 0 0 0 0 STD5.60
2025-10-21 10:28:00 12 17.00 0.060000 41.649648 41.62752893 0 0 0 0 0 0 0 0 STD5.60
2025-10-21 10:22:58 18 18.50 0.090000 41.649648 41.62752893 0 0 0 0 0 0 0 0 STD5.60
2025-10-21 10:17:56 15 16.50 0.075000 41.649648 41.62752893 0 0 0 0 0 0 0 0 STD5.60
2025-10-21 10:12:54 13 16.80 0.065000 41.649648 41.62752893 0 0 0 0 0 0 0 0 STD5.60
2025-10-21 10:07:52 25 19.60 0.125000 41.649648 41.62752893 0 0 0 0 0 0 0 0 STD5.60
2025-10-21 10:02:50 20 17.80 0.100000 41.649648 41.62752893 0 0 0 0 0 0 0 0 STD5.60
2025-10-21 09:57:48 16 17.50 0.080000 41.649648 41.62752893 0 0 0 0 0 0 0 0 STD5.60
2025-10-21 09:52:46 27 19.00 0.135000 41.649648 41.62752893 0 0 0 0 0 0 0 0 STD5.60
2025-10-21 09:47:44 19 16.10 0.095000 41.649648 41.62752893 0 0 0 0 0 0 0 0 STD5.60
2025-10-21 09:42:42 21 17.20 0.105000 41.649648 41.62752893 0 0 0 0 0 0 0 0 STD5.60
2025-10-21 09:37:38 20 17.70 0.100000 41.649648 41.62752893 0 0 0 0 0 0 0 0 STD5.60
2025-10-21 09:32:36 11 18.00 0.055000 41.649648 41.62752893 0 0 0 0 0 0 0 0 STD5.60
2025-10-21 09:27:34 25 19.80 0.125000 41.649648 41.62752893 0 0 0 0 0 0 0 0 STD5.60
2025-10-21 09:22:32 28 18.20 0.140000 41.649648 41.62752893 0 0 0 0 0 0 0 0 STD5.60
2025-10-21 09:17:30 14 17.60 0.070000 41.649648 41.62752893 0 0 0 0 0 0 0 0 STD5.60
2025-10-21 09:12:28 17 17.80 0.085000 41.649648 41.62752893 0 0 0 0 0 0 0 0 STD5.60
2025-10-21 09:07:26 20 16.50 0.100000 41.649648 41.62752893 0 0 0 0 0 0 0 0 STD5.60
2025-10-21 09:02:24 14 18.60 0.070000 41.649648 41.62752893 0 0 0 0 0 0 0 0 STD5.60
2025-10-21 08:57:22 21 20.20 0.105000 41.649648 41.62752893 0 0 0 0 0 0 0 0 STD5.60
2025-10-21 08:52:19 19 19.30 0.095000 41.649648 41.62752893 0 0 0 0 0 0 0 0 STD5.60
2025-10-21 08:47:18 19 17.00 0.095000 41.649648 41.62752893 0 0 0 0 0 0 0 0 STD5.60
2025-10-21 08:42:16 12 15.80 0.060000 41.649648 41.62752893 0 0 0 0 0 0 0 0 STD5.60
2025-10-21 08:37:11 15 16.30 0.075000 41.649648 41.62752893 0 0 0 0 0 0 0 0 STD5.60
2025-10-21 08:32:09 14 16.70 0.070000 41.649648 41.62752893 0 0 0 0 0 0 0 0 STD5.60
2025-10-21 08:27:07 20 17.60 0.100000 41.649648 41.62752893 0 0 0 0 0 0 0 0 STD5.60
2025-10-21 08:22:05 15 17.10 0.075000 41.649648 41.62752893 0 0 0 0 0 0 0 0 STD5.60
2025-10-21 08:17:03 16 17.40 0.080000 41.649648 41.62752893 0 0 0 0 0 0 0 0 STD5.60
2025-10-21 08:12:01 19 17.90 0.095000 41.649648 41.62752893 0 0 0 0 0 0 0 0 STD5.60
2025-10-21 08:06:59 12 19.20 0.060000 41.649648 41.62752893 0 0 0 0 0 0 0 0 STD5.60
2025-10-21 08:01:57 22 20.70 0.110000 41.649648 41.62752893 0 0 0 0 0 0 0 0 STD5.60
2025-10-21 07:56:54 25 17.70 0.125000 41.649648 41.62752893 0 0 0 0 0 0 0 0 STD5.60
2025-10-21 07:51:52 16 16.70 0.080000 41.649648 41.62752893 0 0 0 0 0 0 0 0 STD5.60
2025-10-21 07:46:51 15 17.20 0.075000 41.649648 41.62752893 0 0 0 0 0 0 0 0 STD5.60
2025-10-21 07:41:49 25 17.90 0.125000 41.649648 41.62752893 0 0 0 0 0 0 0 0 STD5.60
2025-10-21 07:36:44 16 17.40 0.080000 41.649648 41.62752893 0 0 0 0 0 0 0 0 STD5.60
2025-10-21 07:31:43 14 16.20 0.070000 41.649648 41.62752893 0 0 0 0 0 0 0 0 STD5.60
2025-10-21 07:26:41 17 16.80 0.085000 41.649648 41.62752893 0 0 0 0 0 0 0 0 STD5.60
2025-10-21 07:21:39 17 18.00 0.085000 41.649648 41.62752893 0 0 0 0 0 0 0 0 STD5.60
2025-10-21 07:16:37 18 17.80 0.090000 41.649648 41.62752893 0 0 0 0 0 0 0 0 STD5.60
2025-10-21 07:11:35 19 17.90 0.095000 41.649648 41.62752893 0 0 0 0 0 0 0 0 STD5.60
2025-10-21 07:06:36 21 18.10 0.105000 41.649648 41.62752893 0 0 0 0 0 0 0 0 STD5.60
2025-10-21 07:01:31 11 17.00 0.055000 41.649648 41.62752893 0 0 0 0 0 0 0 0 STD5.60
2025-10-21 06:56:28 23 18.90 0.115000 41.649648 41.62752893 0 0 0 0 0 0 0 0 STD5.60
2025-10-21 06:51:26 18 18.70 0.090000 41.649648 41.62752893 0 0 0 0 0 0 0 0 STD5.60
2025-10-21 06:46:24 15 17.40 0.075000 41.649648 41.62752893 0 0 0 0 0 0 0 0 STD5.60
2025-10-21 06:41:22 14 17.90 0.070000 41.649648 41.62752893 0 0 0 0 0 0 0 0 STD5.60
2025-10-21 06:36:18 20 18.40 0.100000 41.649648 41.62752893 0 0 0 0 0 0 0 0 STD5.60
2025-10-21 06:31:16 22 19.20 0.110000 41.649648 41.62752893 0 0 0 0 0 0 0 0 STD5.60
2025-10-21 06:26:14 23 18.20 0.115000 41.649648 41.62752893 0 0 0 0 0 0 0 0 STD5.60
2025-10-21 06:21:12 13 18.10 0.065000 41.649648 41.62752893 0 0 0 0 0 0 0 0 STD5.60
2025-10-21 06:16:10 16 18.50 0.080000 41.649648 41.62752893 0 0 0 0 0 0 0 0 STD5.60
2025-10-21 06:11:09 24 16.80 0.120000 41.649648 41.62752893 0 0 0 0 0 0 0 0 STD5.60
2025-10-21 06:06:06 15 17.80 0.075000 41.649648 41.62752893 0 0 0 0 0 0 0 0 STD5.60
2025-10-21 06:01:05 17 18.40 0.085000 41.649648 41.62752893 0 0 0 0 0 0 0 0 STD5.60
2025-10-21 05:56:02 11 17.60 0.055000 41.649648 41.62752893 0 0 0 0 0 0 0 0 STD5.60
2025-10-21 05:51:00 15 16.50 0.075000 41.649648 41.62752893 0 0 0 0 0 0 0 0 STD5.60
2025-10-21 05:45:57 15 14.90 0.075000 41.649648 41.62752893 0 0 0 0 0 0 0 0 STD5.60
2025-10-21 05:40:56 12 17.50 0.060000 41.649648 41.62752893 0 0 0 0 0 0 0 0 STD5.60
2025-10-21 05:35:51 30 18.90 0.150000 41.649648 41.62752893 0 0 0 0 0 0 0 0 STD5.60
2025-10-21 05:30:49 16 17.10 0.080000 41.649648 41.62752893 0 0 0 0 0 0 0 0 STD5.60
2025-10-21 05:25:47 19 18.10 0.095000 41.649648 41.62752893 0 0 0 0 0 0 0 0 STD5.60
2025-10-21 05:20:45 16 19.20 0.080000 41.649648 41.62752893 0 0 0 0 0 0 0 0 STD5.60
2025-10-21 05:15:43 20 19.80 0.100000 41.649648 41.62752893 0 0 0 0 0 0 0 0 STD5.60
2025-10-21 05:10:42 28 20.90 0.140000 41.649648 41.62752893 0 0 0 0 0 0 0 0 STD5.60
2025-10-21 05:05:39 18 19.40 0.090000 41.649648 41.62752893 0 0 0 0 0 0 0 0 STD5.60
2025-10-21 05:00:37 19 17.70 0.095000 41.649648 41.62752893 0 0 0 0 0 0 0 0 STD5.60
2025-10-21 04:55:35 22 18.50 0.110000 41.649648 41.62752893 0 0 0 0 0 0 0 0 STD5.60
2025-10-21 04:50:33 16 18.60 0.080000 41.649648 41.62752893 0 0 0 0 0 0 0 0 STD5.60
2025-10-21 04:45:31 12 17.00 0.060000 41.649648 41.62752893 0 0 0 0 0 0 0 0 STD5.60
2025-10-21 04:40:29 18 17.40 0.090000 41.649648 41.62752893 0 0 0 0 0 0 0 0 STD5.60
2025-10-21 04:35:25 16 18.20 0.080000 41.649648 41.62752893 0 0 0 0 0 0 0 0 STD5.60
2025-10-21 04:30:23 17 18.20 0.085000 41.649648 41.62752893 0 0 0 0 0 0 0 0 STD5.60
2025-10-21 04:25:21 19 18.70 0.095000 41.649648 41.62752893 0 0 0 0 0 0 0 0 STD5.60
2025-10-21 04:20:20 22 18.00 0.110000 41.649648 41.62752893 0 0 0 0 0 0 0 0 STD5.60
2025-10-21 04:15:18 16 16.80 0.080000 41.649648 41.62752893 0 0 0 0 0 0 0 0 STD5.60
2025-10-21 04:10:16 12 17.40 0.060000 41.649648 41.62752893 0 0 0 0 0 0 0 0 STD5.60
2025-10-21 04:05:13 14 18.70 0.070000 41.649648 41.62752893 0 0 0 0 0 0 0 0 STD5.60
2025-10-21 04:00:12 17 18.40 0.085000 41.649648 41.62752893 0 0 0 0 0 0 0 0 STD5.60
2025-10-21 03:55:10 17 17.60 0.085000 41.649648 41.62752893 0 0 0 0 0 0 0 0 STD5.60
2025-10-21 03:50:08 9 17.60 0.045000 41.649648 41.62752893 0 0 0 0 0 0 0 0 STD5.60
2025-10-21 03:45:06 20 17.30 0.100000 41.649648 41.62752893 0 0 0 0 0 0 0 0 STD5.60
2025-10-21 03:40:05 21 18.20 0.105000 41.649648 41.62752893 0 0 0 0 0 0 0 0 STD5.60
2025-10-21 03:35:00 23 19.60 0.115000 41.649648 41.62752893 0 0 0 0 0 0 0 0 STD5.60
2025-10-21 03:29:58 23 20.30 0.115000 41.649648 41.62752893 0 0 0 0 0 0 0 0 STD5.60
2025-10-21 03:24:56 24 19.10 0.120000 41.649648 41.62752893 0 0 0 0 0 0 0 0 STD5.60
2025-10-21 03:19:54 17 18.00 0.085000 41.649648 41.62752893 0 0 0 0 0 0 0 0 STD5.60
2025-10-21 03:14:52 13 17.40 0.065000 41.649648 41.62752893 0 0 0 0 0 0 0 0 STD5.60
2025-10-21 03:09:51 13 18.60 0.065000 41.649648 41.62752893 0 0 0 0 0 0 0 0 STD5.60
2025-10-21 03:04:49 24 21.10 0.120000 41.649648 41.62752893 0 0 0 0 0 0 0 0 STD5.60
2025-10-21 02:59:47 13 20.50 0.065000 41.649648 41.62752893 0 0 0 0 0 0 0 0 STD5.60
2025-10-21 02:54:45 18 18.90 0.090000 41.649648 41.62752893 0 0 0 0 0 0 0 0 STD5.60
2025-10-21 02:49:43 12 19.30 0.060000 41.649648 41.62752893 0 0 0 0 0 0 0 0 STD5.60
2025-10-21 02:44:42 20 18.70 0.100000 41.649648 41.62752893 0 0 0 0 0 0 0 0 STD5.60
2025-10-21 02:39:40 17 17.40 0.085000 41.649648 41.62752893 0 0 0 0 0 0 0 0 STD5.60
2025-10-21 02:34:35 21 16.30 0.105000 41.649648 41.62752893 0 0 0 0 0 0 0 0 STD5.60
2025-10-21 02:29:33 10 15.40 0.050000 41.649648 41.62752893 0 0 0 0 0 0 0 0 STD5.60
2025-10-21 02:24:32 17 16.60 0.085000 41.649648 41.62752893 0 0 0 0 0 0 0 0 STD5.60
2025-10-21 02:19:29 16 18.20 0.080000 41.649648 41.62752893 0 0 0 0 0 0 0 0 STD5.60
2025-10-21 02:14:28 26 20.90 0.130000 41.649648 41.62752893 0 0 0 0 0 0 0 0 STD5.60
2025-10-21 02:09:26 23 19.90 0.115000 41.649648 41.62752893 0 0 0 0 0 0 0 0 STD5.60
2025-10-21 02:04:24 18 17.60 0.090000 41.649648 41.62752893 0 0 0 0 0 0 0 0 STD5.60
2025-10-21 01:59:22 20 17.80 0.100000 41.649648 41.62752893 0 0 0 0 0 0 0 0 STD5.60
2025-10-21 01:54:20 17 18.30 0.085000 41.649648 41.62752893 0 0 0 0 0 0 0 0 STD5.60
2025-10-21 01:49:18 16 16.60 0.080000 41.649648 41.62752893 0 0 0 0 0 0 0 0 STD5.60
2025-10-21 01:44:17 19 15.30 0.095000 41.649648 41.62752893 0 0 0 0 0 0 0 0 STD5.60
2025-10-21 01:39:14 15 17.20 0.075000 41.649648 41.62752893 0 0 0 0 0 0 0 0 STD5.60
2025-10-21 01:34:10 18 19.10 0.090000 41.649648 41.62752893 0 0 0 0 0 0 0 0 STD5.60
2025-10-21 01:29:08 18 19.10 0.090000 41.649648 41.62752893 0 0 0 0 0 0 0 0 STD5.60
2025-10-21 01:24:06 16 19.70 0.080000 41.649648 41.62752893 0 0 0 0 0 0 0 0 STD5.60
2025-10-21 01:19:04 27 19.80 0.135000 41.649648 41.62752893 0 0 0 0 0 0 0 0 STD5.60
2025-10-21 01:14:03 16 17.80 0.080000 41.649648 41.62752893 0 0 0 0 0 0 0 0 STD5.60
2025-10-21 01:09:01 23 16.80 0.115000 41.649648 41.62752893 0 0 0 0 0 0 0 0 STD5.60
2025-10-21 01:03:58 21 17.40 0.105000 41.649648 41.62752893 0 0 0 0 0 0 0 0 STD5.60
2025-10-21 00:58:56 26 19.30 0.130000 41.649648 41.62752893 0 0 0 0 0 0 0 0 STD5.60
2025-10-21 00:53:54 17 20.90 0.085000 41.649648 41.62752893 0 0 0 0 0 0 0 0 STD5.60
2025-10-21 00:48:52 20 19.40 0.100000 41.649648 41.62752893 0 0 0 0 0 0 0 0 STD5.60
2025-10-21 00:43:50 15 16.80 0.075000 41.649648 41.62752893 0 0 0 0 0 0 0 0 STD5.60
2025-10-21 00:38:49 16 15.90 0.080000 41.649648 41.62752893 0 0 0 0 0 0 0 0 STD5.60
2025-10-21 00:33:45 23 17.00 0.115000 41.649648 41.62752893 0 0 0 0 0 0 0 0 STD5.60
2025-10-21 00:28:43 18 19.20 0.090000 41.649648 41.62752893 0 0 0 0 0 0 0 0 STD5.60
2025-10-21 00:23:41 21 18.40 0.105000 41.649648 41.62752893 0 0 0 0 0 0 0 0 STD5.60
2025-10-21 00:18:39 20 17.90 0.100000 41.649648 41.62752893 0 0 0 0 0 0 0 0 STD5.60
2025-10-21 00:13:37 11 20.30 0.055000 41.649648 41.62752893 0 0 0 0 0 0 0 0 STD5.60
2025-10-21 00:08:35 24 21.50 0.120000 41.649648 41.62752893 0 0 0 0 0 0 0 0 STD5.60
2025-10-21 00:03:33 30 19.30 0.150000 41.649648 41.62752893 0 0 0 0 0 0 0 0 STD5.60
2025-10-20 23:58:31 22 15.80 0.110000 41.649648 41.62752893 0 0 0 0 0 0 0 0 STD5.60
2025-10-20 23:53:29 15 17.90 0.075000 41.649648 41.62752893 0 0 0 0 0 0 0 0 STD5.60
2025-10-20 23:48:27 30 19.90 0.150000 41.649648 41.62752893 0 0 0 0 0 0 0 0 STD5.60
2025-10-20 23:43:25 13 17.50 0.065000 41.649648 41.62752893 0 0 0 0 0 0 0 0 STD5.60
2025-10-20 23:38:23 25 19.80 0.125000 41.649648 41.62752893 0 0 0 0 0 0 0 0 STD5.60
2025-10-20 23:33:18 18 19.90 0.090000 41.649648 41.62752893 0 0 0 0 0 0 0 0 STD5.60
2025-10-20 23:28:16 15 17.10 0.075000 41.649648 41.62752893 0 0 0 0 0 0 0 0 STD5.60
2025-10-20 23:23:14 19 16.50 0.095000 41.649648 41.62752893 0 0 0 0 0 0 0 0 STD5.60
2025-10-20 23:18:12 13 16.20 0.065000 41.649648 41.62752893 0 0 0 0 0 0 0 0 STD5.60
2025-10-20 23:13:10 21 17.90 0.105000 41.649648 41.62752893 0 0 0 0 0 0 0 0 STD5.60
2025-10-20 23:08:08 14 20.10 0.070000 41.649648 41.62752893 0 0 0 0 0 0 0 0 STD5.60
2025-10-20 23:03:06 18 20.30 0.090000 41.649648 41.62752893 0 0 0 0 0 0 0 0 STD5.60
2025-10-20 22:58:04 20 18.80 0.100000 41.649648 41.62752893 0 0 0 0 0 0 0 0 STD5.60
2025-10-20 22:53:02 18 18.00 0.090000 41.649648 41.62752893 0 0 0 0 0 0 0 0 STD5.60
2025-10-20 22:48:00 20 16.60 0.100000 41.649648 41.62752893 0 0 0 0 0 0 0 0 STD5.60
2025-10-20 22:42:58 14 15.70 0.070000 41.649648 41.62752893 0 0 0 0 0 0 0 0 STD5.60
2025-10-20 22:37:56 13 17.00 0.065000 41.649648 41.62752893 0 0 0 0 0 0 0 0 STD5.60
2025-10-20 22:32:52 18 16.10 0.090000 41.649648 41.62752893 0 0 0 0 0 0 0 0 STD5.60
2025-10-20 22:27:50 14 16.10 0.070000 41.649648 41.62752893 0 0 0 0 0 0 0 0 STD5.60
2025-10-20 22:22:48 21 16.30 0.105000 41.649648 41.62752893 0 0 0 0 0 0 0 0 STD5.60
2025-10-20 22:17:46 8 16.30 0.040000 41.649648 41.62752893 0 0 0 0 0 0 0 0 STD5.60
2025-10-20 22:12:44 22 19.30 0.110000 41.649648 41.62752893 0 0 0 0 0 0 0 0 STD5.60
2025-10-20 22:07:43 18 19.00 0.090000 41.649648 41.62752893 0 0 0 0 0 0 0 0 STD5.60
2025-10-20 22:02:41 18 15.40 0.090000 41.649648 41.62752893 0 0 0 0 0 0 0 0 STD5.60
2025-10-20 21:57:38 18 14.70 0.090000 41.649648 41.62752893 0 0 0 0 0 0 0 0 STD5.60
2025-10-20 21:52:37 14 15.10 0.070000 41.649648 41.62752893 0 0 0 0 0 0 0 0 STD5.60
2025-10-20 21:47:35 14 16.10 0.070000 41.649648 41.62752893 0 0 0 0 0 0 0 0 STD5.60
2025-10-20 21:42:33 17 16.50 0.085000 41.649648 41.62752893 0 0 0 0 0 0 0 0 STD5.60
2025-10-20 21:37:32 12 16.20 0.060000 41.649648 41.62752893 0 0 0 0 0 0 0 0 STD5.60
2025-10-20 21:32:27 12 17.50 0.060000 41.649648 41.62752893 0 0 0 0 0 0 0 0 STD5.60
2025-10-20 21:27:25 9 16.50 0.045000 41.649648 41.62752893 0 0 0 0 0 0 0 0 STD5.60
2025-10-20 21:22:23 21 16.60 0.105000 41.649648 41.62752893 0 0 0 0 0 0 0 0 STD5.60
2025-10-20 21:17:21 20 18.70 0.100000 41.649648 41.62752893 0 0 0 0 0 0 0 0 STD5.60
2025-10-20 21:12:19 19 18.30 0.095000 41.649648 41.62752893 0 0 0 0 0 0 0 0 STD5.60
2025-10-20 21:07:18 17 17.90 0.085000 41.649648 41.62752893 0 0 0 0 0 0 0 0 STD5.60
2025-10-20 21:02:16 19 18.30 0.095000 41.649648 41.62752893 0 0 0 0 0 0 0 0 STD5.60
2025-10-20 20:57:13 15 18.20 0.075000 41.649648 41.62752893 0 0 0 0 0 0 0 0 STD5.60
2025-10-20 20:52:12 15 18.80 0.075000 41.649648 41.62752893 0 0 0 0 0 0 0 0 STD5.60
2025-10-20 20:47:10 22 20.20 0.110000 41.649648 41.62752893 0 0 0 0 0 0 0 0 STD5.60
2025-10-20 20:42:08 16 17.90 0.080000 41.649648 41.62752893 0 0 0 0 0 0 0 0 STD5.60
2025-10-20 08:31:49 21 18.60 0.105000 41.649648 41.62752893 0 0 0 0 0 0 0 0 STD5.60
2025-10-20 08:26:47 18 17.30 0.090000 41.649648 41.62752893 0 0 0 0 0 0 0 0 STD5.60
2025-10-20 08:21:45 25 19.80 0.125000 41.649648 41.62752893 0 0 0 0 0 0 0 0 STD5.60
2025-10-20 08:16:44 12 18.60 0.060000 41.649648 41.62752893 0 0 0 0 0 0 0 0 STD5.60
2025-10-20 08:11:41 17 16.00 0.085000 41.649648 41.62752893 0 0 0 0 0 0 0 0 STD5.60
2025-10-20 08:06:39 19 16.20 0.095000 41.649648 41.62752893 0 0 0 0 0 0 0 0 STD5.60
2025-10-20 08:01:37 22 17.50 0.110000 41.649648 41.62752893 0 0 0 0 0 0 0 0 STD5.60
2025-10-20 07:56:34 12 18.50 0.060000 41.649648 41.62752893 0 0 0 0 0 0 0 0 STD5.60
2025-10-20 07:51:33 28 17.70 0.140000 41.649648 41.62752893 0 0 0 0 0 0 0 0 STD5.60
2025-10-20 07:46:30 13 16.20 0.065000 41.649648 41.62752893 0 0 0 0 0 0 0 0 STD5.60
2025-10-20 07:41:28 21 16.20 0.105000 41.649648 41.62752893 0 0 0 0 0 0 0 0 STD5.60
2025-10-20 07:36:26 19 17.40 0.095000 41.649648 41.62752893 0 0 0 0 0 0 0 0 STD5.60
2025-10-20 07:31:22 14 19.90 0.070000 41.649648 41.62752893 0 0 0 0 0 0 0 0 STD5.60
2025-10-20 07:26:20 25 19.70 0.125000 41.649648 41.62752893 0 0 0 0 0 0 0 0 STD5.60
2025-10-20 07:21:17 14 19.40 0.070000 41.649648 41.62752893 0 0 0 0 0 0 0 0 STD5.60
2025-10-20 07:16:15 21 19.10 0.105000 41.649648 41.62752893 0 0 0 0 0 0 0 0 STD5.60
2025-10-20 07:11:13 20 17.80 0.100000 41.649648 41.62752893 0 0 0 0 0 0 0 0 STD5.60
2025-10-20 07:06:11 13 18.70 0.065000 41.649648 41.62752893 0 0 0 0 0 0 0 0 STD5.60
2025-10-20 07:01:09 18 17.90 0.090000 41.649648 41.62752893 0 0 0 0 0 0 0 0 STD5.60
2025-10-20 06:56:06 17 17.90 0.085000 41.649648 41.62752893 0 0 0 0 0 0 0 0 STD5.60
2025-10-20 06:51:04 16 19.20 0.080000 41.649648 41.62752893 0 0 0 0 0 0 0 0 STD5.60
2025-10-20 06:46:02 19 18.70 0.095000 41.649648 41.62752893 0 0 0 0 0 0 0 0 STD5.60
2025-10-20 06:41:00 17 19.10 0.085000 41.649648 41.62752893 0 0 0 0 0 0 0 0 STD5.60
2025-10-20 06:35:58 27 17.50 0.135000 41.649648 41.62752893 0 0 0 0 0 0 0 0 STD5.60
2025-10-20 06:30:53 14 16.60 0.070000 41.649648 41.62752893 0 0 0 0 0 0 0 0 STD5.60
2025-10-20 06:25:51 16 17.90 0.080000 41.649648 41.62752893 0 0 0 0 0 0 0 0 STD5.60
2025-10-20 06:20:49 15 18.00 0.075000 41.649648 41.62752893 0 0 0 0 0 0 0 0 STD5.60
2025-10-20 06:15:47 20 16.70 0.100000 41.649648 41.62752893 0 0 0 0 0 0 0 0 STD5.60
2025-10-20 06:10:44 15 16.30 0.075000 41.649648 41.62752893 0 0 0 0 0 0 0 0 STD5.60
2025-10-20 06:05:42 10 16.90 0.050000 41.649648 41.62752893 0 0 0 0 0 0 0 0 STD5.60
2025-10-20 06:00:40 10 17.20 0.050000 41.649648 41.62752893 0 0 0 0 0 0 0 0 STD5.60
2025-10-20 05:55:38 25 17.60 0.125000 41.649648 41.62752893 0 0 0 0 0 0 0 0 STD5.60
2025-10-20 05:50:35 13 18.50 0.065000 41.649648 41.62752893 0 0 0 0 0 0 0 0 STD5.60
2025-10-20 05:45:33 15 18.90 0.075000 41.649648 41.62752893 0 0 0 0 0 0 0 0 STD5.60
2025-10-20 05:40:31 21 18.00 0.105000 41.649648 41.62752893 0 0 0 0 0 0 0 0 STD5.60
2025-10-20 05:35:29 14 18.20 0.070000 41.649648 41.62752893 0 0 0 0 0 0 0 0 STD5.60
2025-10-20 05:30:25 17 17.50 0.085000 41.649648 41.62752893 0 0 0 0 0 0 0 0 STD5.60
2025-10-20 05:25:23 17 17.60 0.085000 41.649648 41.62752893 0 0 0 0 0 0 0 0 STD5.60
2025-10-20 05:20:21 13 20.00 0.065000 41.649648 41.62752893 0 0 0 0 0 0 0 0 STD5.60
2025-10-20 05:15:18 20 19.30 0.100000 41.649648 41.62752893 0 0 0 0 0 0 0 0 STD5.60
2025-10-20 05:10:17 19 17.40 0.095000 41.649648 41.62752893 0 0 0 0 0 0 0 0 STD5.60
2025-10-20 05:05:14 22 16.70 0.110000 41.649648 41.62752893 0 0 0 0 0 0 0 0 STD5.60
2025-10-20 05:00:13 20 14.80 0.100000 41.649648 41.62752893 0 0 0 0 0 0 0 0 STD5.60
2025-10-20 04:55:10 10 15.50 0.050000 41.649648 41.62752893 0 0 0 0 0 0 0 0 STD5.60
2025-10-20 04:50:08 16 18.10 0.080000 41.649648 41.62752893 0 0 0 0 0 0 0 0 STD5.60
2025-10-20 04:45:06 20 19.50 0.100000 41.649648 41.62752893 0 0 0 0 0 0 0 0 STD5.60
2025-10-20 04:40:03 23 18.70 0.115000 41.649648 41.62752893 0 0 0 0 0 0 0 0 STD5.60
2025-10-20 04:35:02 12 15.30 0.060000 41.649648 41.62752893 0 0 0 0 0 0 0 0 STD5.60
2025-10-20 04:29:56 5 16.70 0.025000 41.649648 41.62752893 0 0 0 0 0 0 0 0 STD5.60
2025-10-20 04:24:54 13 18.50 0.065000 41.649648 41.62752893 0 0 0 0 0 0 0 0 STD5.60
2025-10-20 04:19:52 16 17.20 0.080000 41.649648 41.62752893 0 0 0 0 0 0 0 0 STD5.60
2025-10-20 04:14:50 16 18.10 0.080000 41.649648 41.62752893 0 0 0 0 0 0 0 0 STD5.60
2025-10-20 04:09:47 17 19.30 0.085000 41.649648 41.62752893 0 0 0 0 0 0 0 0 STD5.60
2025-10-20 04:04:45 21 18.50 0.105000 41.649648 41.62752893 0 0 0 0 0 0 0 0 STD5.60
2025-10-20 03:59:43 20 18.40 0.100000 41.649648 41.62752893 0 0 0 0 0 0 0 0 STD5.60
2025-10-20 03:54:41 20 19.20 0.100000 41.649648 41.62752893 0 0 0 0 0 0 0 0 STD5.60
2025-10-20 03:49:39 22 17.50 0.110000 41.649648 41.62752893 0 0 0 0 0 0 0 0 STD5.60
2025-10-20 03:44:36 14 17.00 0.070000 41.649648 41.62752893 0 0 0 0 0 0 0 0 STD5.60
2025-10-20 03:39:34 15 16.20 0.075000 41.649648 41.62752893 0 0 0 0 0 0 0 0 STD5.60
2025-10-20 03:34:32 14 16.20 0.070000 41.649648 41.62752893 0 0 0 0 0 0 0 0 STD5.60
2025-10-20 03:29:28 28 17.90 0.140000 41.649648 41.62752893 0 0 0 0 0 0 0 0 STD5.60
2025-10-20 03:24:26 15 16.70 0.075000 41.649648 41.62752893 0 0 0 0 0 0 0 0 STD5.60
2025-10-20 03:19:24 12 16.60 0.060000 41.649648 41.62752893 0 0 0 0 0 0 0 0 STD5.60
2025-10-20 03:14:22 17 16.40 0.085000 41.649648 41.62752893 0 0 0 0 0 0 0 0 STD5.60
2025-10-20 03:09:19 15 16.20 0.075000 41.649648 41.62752893 0 0 0 0 0 0 0 0 STD5.60
2025-10-20 03:04:17 12 17.20 0.060000 41.649648 41.62752893 0 0 0 0 0 0 0 0 STD5.60
2025-10-20 02:59:15 19 17.70 0.095000 41.649648 41.62752893 0 0 0 0 0 0 0 0 STD5.60
2025-10-20 02:54:12 17 17.10 0.085000 41.649648 41.62752893 0 0 0 0 0 0 0 0 STD5.60
2025-10-20 02:49:10 16 16.00 0.080000 41.649648 41.62752893 0 0 0 0 0 0 0 0 STD5.60
2025-10-20 02:44:08 9 17.40 0.045000 41.649648 41.62752893 0 0 0 0 0 0 0 0 STD5.60
2025-10-20 02:39:06 16 18.20 0.080000 41.649648 41.62752893 0 0 0 0 0 0 0 0 STD5.60
2025-10-20 02:34:04 19 18.40 0.095000 41.649648 41.62752893 0 0 0 0 0 0 0 0 STD5.60
2025-10-20 02:29:00 18 18.10 0.090000 41.649648 41.62752893 0 0 0 0 0 0 0 0 STD5.60
2025-10-20 02:23:58 17 17.40 0.085000 41.649648 41.62752893 0 0 0 0 0 0 0 0 STD5.60
2025-10-20 02:18:56 19 18.30 0.095000 41.649648 41.62752893 0 0 0 0 0 0 0 0 STD5.60
2025-10-20 02:13:53 24 18.50 0.120000 41.649648 41.62752893 0 0 0 0 0 0 0 0 STD5.60
2025-10-20 02:08:51 17 18.00 0.085000 41.649648 41.62752893 0 0 0 0 0 0 0 0 STD5.60
2025-10-20 02:03:49 22 17.10 0.110000 41.649648 41.62752893 0 0 0 0 0 0 0 0 STD5.60
2025-10-20 01:58:47 18 17.50 0.090000 41.649648 41.62752893 0 0 0 0 0 0 0 0 STD5.60
2025-10-20 01:53:44 12 19.00 0.060000 41.649648 41.62752893 0 0 0 0 0 0 0 0 STD5.60
2025-10-20 01:48:43 26 15.80 0.130000 41.649648 41.62752893 0 0 0 0 0 0 0 0 STD5.60
2025-10-20 01:43:40 16 14.40 0.080000 41.649648 41.62752893 0 0 0 0 0 0 0 0 STD5.60
2025-10-20 01:38:38 17 17.50 0.085000 41.649648 41.62752893 0 0 0 0 0 0 0 0 STD5.60
2025-10-20 01:33:35 19 18.40 0.095000 41.649648 41.62752893 0 0 0 0 0 0 0 0 STD5.60
2025-10-20 01:28:32 24 20.20 0.120000 41.649648 41.62752893 0 0 0 0 0 0 0 0 STD5.60
2025-10-20 01:23:29 28 19.00 0.140000 41.649648 41.62752893 0 0 0 0 0 0 0 0 STD5.60
2025-10-20 01:18:27 17 17.00 0.085000 41.649648 41.62752893 0 0 0 0 0 0 0 0 STD5.60
2025-10-20 01:13:25 17 19.60 0.085000 41.649648 41.62752893 0 0 0 0 0 0 0 0 STD5.60
2025-10-20 01:08:23 26 19.80 0.130000 41.649648 41.62752893 0 0 0 0 0 0 0 0 STD5.60
2025-10-20 01:03:21 16 19.20 0.080000 41.649648 41.62752893 0 0 0 0 0 0 0 0 STD5.60
2025-10-20 00:58:19 14 18.20 0.070000 41.649648 41.62752893 0 0 0 0 0 0 0 0 STD5.60
Geiger Counter World Map       A real time radiation map.     Copyright 2015 All rights reserved.